Maryland AWOS List, Phone Numbers

USA |  
| Search AWOS

Rocky Mountain States: Montana | Wyoming | Colorado | New Mexico

Complete weather reports: Maryland

Legend: KFNL = METAR available Follow your local AWOS on AV Mobile = METAR available on AV Mobile
Station Maryland Location Frequency Phone
KAPGFAA ID APG, KAPG 302158Z AUTO 11011KT 9SM CLR 23/17 A3007 Follow KAPG on AV Mobile Phillips Army Air Field / Aberdeen
K61WICAO ID K61W Annapolis Coast Guard Station
KNAKICAO ID KNAK, KNAK 302154Z AUTO 12007KT 10SM SCT060 26/21 A3002 RMK AO2 SLP167 T02610206 Follow KNAK on AV Mobile ANNAPOLIS US NAVAL ACADEMY
KLWXICAO ID KLWX Baltimore / DC Nexrad
KDMHICAO ID KDMH, KDMH 302154Z AUTO 26/16 A3003 RMK AO1 SLP170 T02560156 Follow KDMH on AV Mobile BALTIMORE DOWNTOWN
KMTNFAA ID MTN, AWOS-3PT, KMTN 302145Z 05007KT 10SM FEW090 SCT150 SCT250 25/18 A3006 Follow KMTN on AV Mobile Baltimore / Martin 124.925 410-682-8848
KBWIFAA ID BWI, ASOS, KBWI 302154Z 10012KT 10SM SCT030TCU BKN250 25/18 A3002 Follow KBWI on AV Mobile BALTIMORE-WASHINGTON INTERNATIONAL 410-691-1278
4MDFAA ID 4MD, Belfort PIER 7
KCGEFAA ID CGE, AWOS-3, KCGE 302200Z AUTO 19009G15KT 10SM CLR 28/19 A3005 RMK A01 Follow KCGE on AV Mobile CAMBRIDGE 120.675 410-228-7559
KADWFAA ID ADW, KADW 302158Z AUTO 20013KT 10SM FEW050 29/18 A3001 RMK AO2 SLP167 T02880175 Follow KADW on AV Mobile Camp Springs / Andrews Air Force Base
W32FAA ID W32, Belfort WASHINGTON EXECUTIVE/HYDE FIELD
KCGSFAA ID CGS, AWOS-3, KCGS 302201Z AUTO 18005G14KT 10SM CLR 29/17 A3001 RMK AO1 T02920174 Follow KCGS on AV Mobile COLLEGE PARK 121.225 301-864-5497
K66WICAO ID K66W Cove Point Coast Guard Light Station
KCBEFAA ID CBE, AWOS-3, KCBE 302203Z AUTO 19004KT 10SM SCT065 SCT100 26/18 A3001 RMK AO1 Follow KCBE on AV Mobile Cumberland, Greater Cumberland Regional Airport 128.625 304-738-0451
KESNFAA ID ESN, AWOS-3, KESN 302150Z 18010G16KT 10SM SCT250 30/19 A3007 Follow KESN on AV Mobile Easton / Newman Field 124.475 410-822-2817
KFMEFAA ID FME, AWOS-3, KFME 302200Z AUTO 10006KT 10SM CLR 25/18 A3005 RMK AO1 Follow KFME on AV Mobile Fort Meade / Tipton 123.925
KJWXICAO ID KJWX Fort Ritchie
KFDKFAA ID FDK, AWOS-3, KFDK 302147Z 11005KT 10SM BKN048 BKN065 27/22 A3004 Follow KFDK on AV Mobile Frederick, Frederick Municipal Airport 124.875 301-600-1457
KGAIFAA ID GAI, AWOS-3, KGAI 241435Z AUTO RMK AO1 Follow KGAI on AV Mobile GAITHERSBURG 128.275 301-977-2971
KHGRFAA ID HGR, ASOS, KHGR 302153Z 13010KT 10SM FEW070 SCT090 27/20 A3000 RMK AO2 LTG DSNT SW SLP162 T02720200 Follow KHGR on AV Mobile HAGERSTOWN REGIONAL AIRPORT 126.375 301-745-3497
K2W6FAA ID 2W6, AWOS-3, K2W6 302201Z AUTO 20009G15KT 10SM CLR 30/16 A3006 RMK AO1 Follow K2W6 on AV Mobile LEONARDTOWN 119.575 301-373-6514
K2G4FAA ID 2G4, AWOS-3, K2G4 302200Z AUTO 12009KT 10SM SCT031 SCT043 BKN060 23/16 A3006 RMK AO1 Follow K2G4 on AV Mobile OAKLAND 120.125 301-746-8443
KW30ICAO ID KW30 Ocean City
KN80ICAO ID KN80 Ocean City, Ocean City Municipal Airport
KOXBFAA ID OXB, ASOS, KOXB 302153Z AUTO 20008KT 170V230 10SM CLR 22/18 A3010 RMK AO2 SLP191 T02170183 Follow KOXB on AV Mobile OCEAN CITY MUNICIPAL AIRPORT 119.025 410-213-1530
KNHKFAA ID NHK, KNHK 302152Z 21008G18KT 10SM FEW055 BKN250 31/18 A3004 RMK AO2 SLP172 T03060183 $ Follow KNHK on AV Mobile NAS PATUXENT RIVER MD
KSBYFAA ID SBY, ASOS, KSBY 302154Z 21013KT 10SM CLR 29/19 A3005 Follow KSBY on AV Mobile SALISBURY-WICOMICO CTY REG 118.325 410-341-0868
KNUIFAA ID NUI, KNUI 302153Z AUTO 20012KT 10SM CLR 29/18 A3004 RMK AO2 SLP172 T02890178 Follow KNUI on AV Mobile KNUI WEBSTER FIELD ANNEX
KW29FAA ID W29, AWOS-3, KW29 302200Z AUTO 12005KT 10SM BKN050 28/20 A3003 RMK AO2 TSNO Follow KW29 on AV Mobile STEVENSVILLE 120.575 410-643-8795
K67WICAO ID K67W Stillpond Coast Guard Station
K65WICAO ID K65W Thomas Point Coast Guard Station
KDMWFAA ID DMW, AWOS-3, KDMW 302200Z AUTO 12007G15KT 080V160 10SM SCT047 SCT075 26/19 A3005 RMK AO2 Follow KDMW on AV Mobile WESTMINSTER 121.25 410-876-1281

Click on the AV Mobile icon AV Mobile icon by any station to follow that AWOS feed on AirportView.net Mobile.

Leaders in ADS-B Avemco Insurance Company